sensor_id;sensor_type;location;lat;lon;timestamp;temperature;humidity
7248;DHT22;3665;51.034;13.642;2023-02-01T00:00:03;3.50;1.00
7248;DHT22;3665;51.034;13.642;2023-02-01T00:11:46;3.40;1.00
7248;DHT22;3665;51.034;13.642;2023-02-01T00:16:47;3.50;1.10
7248;DHT22;3665;51.034;13.642;2023-02-01T00:21:47;3.50;1.00
7248;DHT22;3665;51.034;13.642;2023-02-01T00:32:29;3.60;1.00
7248;DHT22;3665;51.034;13.642;2023-02-01T00:43:26;3.60;1.00
7248;DHT22;3665;51.034;13.642;2023-02-01T00:48:14;3.70;1.00
7248;DHT22;3665;51.034;13.642;2023-02-01T00:53:23;3.60;1.00
7248;DHT22;3665;51.034;13.642;2023-02-01T00:58:38;3.50;1.00
7248;DHT22;3665;51.034;13.642;2023-02-01T01:04:01;3.50;1.00
7248;DHT22;3665;51.034;13.642;2023-02-01T01:09:17;3.40;1.00
7248;DHT22;3665;51.034;13.642;2023-02-01T01:14:23;3.50;1.00
7248;DHT22;3665;51.034;13.642;2023-02-01T01:19:32;3.60;1.00
7248;DHT22;3665;51.034;13.642;2023-02-01T01:25:04;3.30;1.00
7248;DHT22;3665;51.034;13.642;2023-02-01T01:30:05;3.30;1.00
7248;DHT22;3665;51.034;13.642;2023-02-01T01:35:09;3.40;1.00
7248;DHT22;3665;51.034;13.642;2023-02-01T01:39:56;3.30;1.00
7248;DHT22;3665;51.034;13.642;2023-02-01T01:45:05;3.30;1.00
7248;DHT22;3665;51.034;13.642;2023-02-01T01:50:08;3.30;1.00
7248;DHT22;3665;51.034;13.642;2023-02-01T01:55:13;3.20;1.00
7248;DHT22;3665;51.034;13.642;2023-02-01T02:00:32;3.30;1.00
7248;DHT22;3665;51.034;13.642;2023-02-01T02:05:21;3.20;1.00
7248;DHT22;3665;51.034;13.642;2023-02-01T02:10:57;3.20;1.00
7248;DHT22;3665;51.034;13.642;2023-02-01T02:17:10;3.20;1.00
7248;DHT22;3665;51.034;13.642;2023-02-01T02:39:49;3.30;1.00
7248;DHT22;3665;51.034;13.642;2023-02-01T02:45:05;3.20;1.00
7248;DHT22;3665;51.034;13.642;2023-02-01T02:50:26;3.20;1.00
7248;DHT22;3665;51.034;13.642;2023-02-01T02:55:41;3.20;1.00
7248;DHT22;3665;51.034;13.642;2023-02-01T03:00:51;3.20;1.00
7248;DHT22;3665;51.034;13.642;2023-02-01T03:06:27;3.20;1.00
7248;DHT22;3665;51.034;13.642;2023-02-01T03:11:48;3.20;1.00
7248;DHT22;3665;51.034;13.642;2023-02-01T03:24:53;3.20;1.00
7248;DHT22;3665;51.034;13.642;2023-02-01T03:29:59;3.20;1.00
7248;DHT22;3665;51.034;13.642;2023-02-01T03:35:30;3.30;1.00
7248;DHT22;3665;51.034;13.642;2023-02-01T03:52:46;3.40;1.00
7248;DHT22;3665;51.034;13.642;2023-02-01T03:57:41;3.40;1.00
7248;DHT22;3665;51.034;13.642;2023-02-01T04:03:13;3.40;1.00
7248;DHT22;3665;51.034;13.642;2023-02-01T04:08:29;3.40;1.00
7248;DHT22;3665;51.034;13.642;2023-02-01T04:13:56;3.50;1.00
7248;DHT22;3665;51.034;13.642;2023-02-01T04:19:07;3.40;1.00
7248;DHT22;3665;51.034;13.642;2023-02-01T04:24:33;3.60;1.00
7248;DHT22;3665;51.034;13.642;2023-02-01T04:29:51;3.60;1.00
7248;DHT22;3665;51.034;13.642;2023-02-01T04:34:40;3.50;1.00
7248;DHT22;3665;51.034;13.642;2023-02-01T04:41:09;3.50;1.00
7248;DHT22;3665;51.034;13.642;2023-02-01T04:51:28;3.50;1.00
7248;DHT22;3665;51.034;13.642;2023-02-01T04:56:12;3.30;1.00
7248;DHT22;3665;51.034;13.642;2023-02-01T05:01:01;3.40;1.00
7248;DHT22;3665;51.034;13.642;2023-02-01T05:05:49;3.50;1.00
7248;DHT22;3665;51.034;13.642;2023-02-01T05:10:36;3.40;1.00
7248;DHT22;3665;51.034;13.642;2023-02-01T05:15:23;3.40;1.00
7248;DHT22;3665;51.034;13.642;2023-02-01T05:20:13;3.40;1.00
7248;DHT22;3665;51.034;13.642;2023-02-01T05:25:02;3.40;1.00
7248;DHT22;3665;51.034;13.642;2023-02-01T05:29:50;3.40;1.00
7248;DHT22;3665;51.034;13.642;2023-02-01T05:34:36;3.40;1.00
7248;DHT22;3665;51.034;13.642;2023-02-01T05:39:26;3.40;1.00
7248;DHT22;3665;51.034;13.642;2023-02-01T05:44:15;3.50;1.00
7248;DHT22;3665;51.034;13.642;2023-02-01T05:49:03;3.40;1.00
7248;DHT22;3665;51.034;13.642;2023-02-01T05:53:50;3.50;1.00
7248;DHT22;3665;51.034;13.642;2023-02-01T05:58:41;3.50;1.00
7248;DHT22;3665;51.034;13.642;2023-02-01T06:03:25;3.60;1.00
7248;DHT22;3665;51.034;13.642;2023-02-01T06:08:14;3.50;1.00
7248;DHT22;3665;51.034;13.642;2023-02-01T06:12:59;3.60;1.00
7248;DHT22;3665;51.034;13.642;2023-02-01T06:17:49;3.60;1.00
7248;DHT22;3665;51.034;13.642;2023-02-01T06:22:35;3.60;1.00
7248;DHT22;3665;51.034;13.642;2023-02-01T06:27:25;3.60;1.00
7248;DHT22;3665;51.034;13.642;2023-02-01T06:32:12;3.40;1.00
7248;DHT22;3665;51.034;13.642;2023-02-01T06:37:01;3.60;1.00
7248;DHT22;3665;51.034;13.642;2023-02-01T06:41:48;3.60;1.00
7248;DHT22;3665;51.034;13.642;2023-02-01T06:46:37;3.50;1.00
7248;DHT22;3665;51.034;13.642;2023-02-01T06:51:25;3.50;1.00
7248;DHT22;3665;51.034;13.642;2023-02-01T06:56:12;3.50;1.00
7248;DHT22;3665;51.034;13.642;2023-02-01T07:01:06;3.50;1.00
7248;DHT22;3665;51.034;13.642;2023-02-01T07:05:55;3.50;1.00
7248;DHT22;3665;51.034;13.642;2023-02-01T07:10:51;3.50;1.00
7248;DHT22;3665;51.034;13.642;2023-02-01T07:15:44;3.50;1.00
7248;DHT22;3665;51.034;13.642;2023-02-01T07:20:28;3.30;1.00
7248;DHT22;3665;51.034;13.642;2023-02-01T07:25:16;3.30;1.00
7248;DHT22;3665;51.034;13.642;2023-02-01T07:30:03;3.10;17.10
7248;DHT22;3665;51.034;13.642;2023-02-01T07:34:53;3.00;47.40
7248;DHT22;3665;51.034;13.642;2023-02-01T07:39:42;2.90;99.90
7248;DHT22;3665;51.034;13.642;2023-02-01T07:44:27;2.80;99.90
7248;DHT22;3665;51.034;13.642;2023-02-01T07:49:14;2.80;99.90
7248;DHT22;3665;51.034;13.642;2023-02-01T07:54:04;3.00;82.70
7248;DHT22;3665;51.034;13.642;2023-02-01T07:58:53;3.00;26.30
7248;DHT22;3665;51.034;13.642;2023-02-01T08:03:42;3.10;1.00
7248;DHT22;3665;51.034;13.642;2023-02-01T08:08:28;3.10;1.00
7248;DHT22;3665;51.034;13.642;2023-02-01T08:13:16;3.20;1.00
7248;DHT22;3665;51.034;13.642;2023-02-01T08:18:05;3.30;1.00
7248;DHT22;3665;51.034;13.642;2023-02-01T08:22:53;3.20;1.00
7248;DHT22;3665;51.034;13.642;2023-02-01T08:27:41;3.10;2.50
7248;DHT22;3665;51.034;13.642;2023-02-01T08:32:31;3.10;2.50
7248;DHT22;3665;51.034;13.642;2023-02-01T08:37:16;3.10;1.00
7248;DHT22;3665;51.034;13.642;2023-02-01T08:42:07;3.40;1.00
7248;DHT22;3665;51.034;13.642;2023-02-01T08:47:08;3.60;1.00
7248;DHT22;3665;51.034;13.642;2023-02-01T08:51:58;3.60;1.00
7248;DHT22;3665;51.034;13.642;2023-02-01T08:56:53;3.70;1.00
7248;DHT22;3665;51.034;13.642;2023-02-01T09:01:49;3.80;1.00
7248;DHT22;3665;51.034;13.642;2023-02-01T09:06:36;4.00;1.00
7248;DHT22;3665;51.034;13.642;2023-02-01T09:11:24;4.00;1.00
7248;DHT22;3665;51.034;13.642;2023-02-01T09:16:11;4.00;1.00
7248;DHT22;3665;51.034;13.642;2023-02-01T09:21:05;4.00;1.00
7248;DHT22;3665;51.034;13.642;2023-02-01T09:25:49;3.80;1.00
7248;DHT22;3665;51.034;13.642;2023-02-01T09:30:39;3.80;1.00
7248;DHT22;3665;51.034;13.642;2023-02-01T09:35:25;3.60;1.00
7248;DHT22;3665;51.034;13.642;2023-02-01T09:40:13;3.60;1.00
7248;DHT22;3665;51.034;13.642;2023-02-01T09:45:21;3.60;1.00
7248;DHT22;3665;51.034;13.642;2023-02-01T09:50:21;3.30;28.30
7248;DHT22;3665;51.034;13.642;2023-02-01T09:55:26;2.80;99.90
7248;DHT22;3665;51.034;13.642;2023-02-01T10:00:19;2.70;99.90
7248;DHT22;3665;51.034;13.642;2023-02-01T10:05:50;2.50;1.00
7248;DHT22;3665;51.034;13.642;2023-02-01T10:11:00;2.20;1.00
7248;DHT22;3665;51.034;13.642;2023-02-01T10:16:13;2.10;99.90
7248;DHT22;3665;51.034;13.642;2023-02-01T10:21:04;2.10;99.90
7248;DHT22;3665;51.034;13.642;2023-02-01T10:26:20;2.20;99.90
7248;DHT22;3665;51.034;13.642;2023-02-01T10:31:09;2.40;1.00
7248;DHT22;3665;51.034;13.642;2023-02-01T10:36:20;2.50;99.90
7248;DHT22;3665;51.034;13.642;2023-02-01T10:41:39;2.70;1.00
7248;DHT22;3665;51.034;13.642;2023-02-01T10:46:55;2.90;1.00
7248;DHT22;3665;51.034;13.642;2023-02-01T10:51:43;2.90;99.90
7248;DHT22;3665;51.034;13.642;2023-02-01T10:56:30;3.00;99.90
7248;DHT22;3665;51.034;13.642;2023-02-01T11:01:30;3.30;34.80
7248;DHT22;3665;51.034;13.642;2023-02-01T11:06:43;3.50;99.90
7248;DHT22;3665;51.034;13.642;2023-02-01T11:12:00;3.60;1.00
7248;DHT22;3665;51.034;13.642;2023-02-01T11:22:25;3.80;99.90
7248;DHT22;3665;51.034;13.642;2023-02-01T11:27:26;3.90;99.90
7248;DHT22;3665;51.034;13.642;2023-02-01T11:32:34;4.00;99.90
7248;DHT22;3665;51.034;13.642;2023-02-01T11:37:58;4.20;21.10
7248;DHT22;3665;51.034;13.642;2023-02-01T11:48:46;4.20;1.00
7248;DHT22;3665;51.034;13.642;2023-02-01T12:01:25;4.30;1.00
7248;DHT22;3665;51.034;13.642;2023-02-01T12:06:54;4.30;1.00
7248;DHT22;3665;51.034;13.642;2023-02-01T12:12:48;4.40;1.00
7248;DHT22;3665;51.034;13.642;2023-02-01T12:23:59;4.50;1.00
7248;DHT22;3665;51.034;13.642;2023-02-01T12:30:40;4.50;1.00
7248;DHT22;3665;51.034;13.642;2023-02-01T12:36:25;4.50;1.00
7248;DHT22;3665;51.034;13.642;2023-02-01T12:42:08;4.40;1.00
7248;DHT22;3665;51.034;13.642;2023-02-01T12:47:43;4.60;1.00
7248;DHT22;3665;51.034;13.642;2023-02-01T12:58:56;4.70;1.00
7248;DHT22;3665;51.034;13.642;2023-02-01T13:04:15;4.80;1.00
7248;DHT22;3665;51.034;13.642;2023-02-01T13:09:53;4.80;1.00
7248;DHT22;3665;51.034;13.642;2023-02-01T13:14:56;4.80;1.00
7248;DHT22;3665;51.034;13.642;2023-02-01T13:21:16;4.90;1.00
7248;DHT22;3665;51.034;13.642;2023-02-01T13:49:19;5.20;1.00
7248;DHT22;3665;51.034;13.642;2023-02-01T13:54:05;5.30;1.00
7248;DHT22;3665;51.034;13.642;2023-02-01T14:17:53;5.10;1.00
7248;DHT22;3665;51.034;13.642;2023-02-01T14:23:41;5.20;1.00
7248;DHT22;3665;51.034;13.642;2023-02-01T14:34:53;5.00;1.00
7248;DHT22;3665;51.034;13.642;2023-02-01T14:40:28;5.00;1.00
7248;DHT22;3665;51.034;13.642;2023-02-01T14:45:52;4.80;1.00
7248;DHT22;3665;51.034;13.642;2023-02-01T14:57:01;4.70;1.00
7248;DHT22;3665;51.034;13.642;2023-02-01T15:02:36;4.80;1.00
7248;DHT22;3665;51.034;13.642;2023-02-01T15:08:47;4.70;1.00
7248;DHT22;3665;51.034;13.642;2023-02-01T15:28:22;4.40;1.00
7248;DHT22;3665;51.034;13.642;2023-02-01T15:34:07;4.20;1.00
7248;DHT22;3665;51.034;13.642;2023-02-01T15:39:24;4.20;1.00
7248;DHT22;3665;51.034;13.642;2023-02-01T15:44:21;4.20;1.00
7248;DHT22;3665;51.034;13.642;2023-02-01T15:49:38;4.20;1.00
7248;DHT22;3665;51.034;13.642;2023-02-01T15:54:42;4.30;1.00
7248;DHT22;3665;51.034;13.642;2023-02-01T15:59:45;4.30;1.00
7248;DHT22;3665;51.034;13.642;2023-02-01T16:05:39;4.40;1.00
7248;DHT22;3665;51.034;13.642;2023-02-01T16:10:27;4.10;1.00
7248;DHT22;3665;51.034;13.642;2023-02-01T16:15:36;3.80;1.00
7248;DHT22;3665;51.034;13.642;2023-02-01T16:20:42;3.60;1.00
7248;DHT22;3665;51.034;13.642;2023-02-01T16:25:39;3.50;1.00
7248;DHT22;3665;51.034;13.642;2023-02-01T16:30:35;3.40;1.00
7248;DHT22;3665;51.034;13.642;2023-02-01T16:35:36;3.40;1.00
7248;DHT22;3665;51.034;13.642;2023-02-01T16:40:57;3.30;15.80
7248;DHT22;3665;51.034;13.642;2023-02-01T16:46:01;3.20;95.00
7248;DHT22;3665;51.034;13.642;2023-02-01T16:51:04;3.20;99.90
7248;DHT22;3665;51.034;13.642;2023-02-01T16:56:21;3.10;99.90
7248;DHT22;3665;51.034;13.642;2023-02-01T17:01:29;3.10;99.90
7248;DHT22;3665;51.034;13.642;2023-02-01T17:06:41;2.90;99.90
7248;DHT22;3665;51.034;13.642;2023-02-01T17:11:51;2.30;99.90
7248;DHT22;3665;51.034;13.642;2023-02-01T17:16:50;1.30;1.00
7248;DHT22;3665;51.034;13.642;2023-02-01T17:21:40;0.80;1.00
7248;DHT22;3665;51.034;13.642;2023-02-01T17:26:25;0.80;99.90
7248;DHT22;3665;51.034;13.642;2023-02-01T17:31:36;0.80;99.90
7248;DHT22;3665;51.034;13.642;2023-02-01T17:37:14;1.00;99.90
7248;DHT22;3665;51.034;13.642;2023-02-01T17:42:26;1.00;99.90
7248;DHT22;3665;51.034;13.642;2023-02-01T17:59:04;1.20;99.90
7248;DHT22;3665;51.034;13.642;2023-02-01T18:04:20;1.40;99.90
7248;DHT22;3665;51.034;13.642;2023-02-01T18:09:05;1.50;99.90
7248;DHT22;3665;51.034;13.642;2023-02-01T18:13:53;1.50;99.90
7248;DHT22;3665;51.034;13.642;2023-02-01T18:18:42;1.50;99.90
7248;DHT22;3665;51.034;13.642;2023-02-01T18:23:48;1.50;99.90
7248;DHT22;3665;51.034;13.642;2023-02-01T18:28:52;1.50;99.90
7248;DHT22;3665;51.034;13.642;2023-02-01T18:33:54;1.50;99.90
7248;DHT22;3665;51.034;13.642;2023-02-01T18:39:03;1.50;99.90
7248;DHT22;3665;51.034;13.642;2023-02-01T18:44:01;1.40;99.90
7248;DHT22;3665;51.034;13.642;2023-02-01T18:48:49;1.40;99.90
7248;DHT22;3665;51.034;13.642;2023-02-01T18:59:04;1.40;1.00
7248;DHT22;3665;51.034;13.642;2023-02-01T19:04:21;1.40;1.00
7248;DHT22;3665;51.034;13.642;2023-02-01T19:21:05;1.40;1.00
7248;DHT22;3665;51.034;13.642;2023-02-01T19:31:00;1.60;99.90
7248;DHT22;3665;51.034;13.642;2023-02-01T19:35:46;1.70;1.00
7248;DHT22;3665;51.034;13.642;2023-02-01T19:40:53;1.80;99.90
7248;DHT22;3665;51.034;13.642;2023-02-01T19:46:18;1.80;99.90
7248;DHT22;3665;51.034;13.642;2023-02-01T19:52:20;1.90;99.90
7248;DHT22;3665;51.034;13.642;2023-02-01T19:57:37;2.00;73.80
7248;DHT22;3665;51.034;13.642;2023-02-01T20:03:19;2.00;1.00
7248;DHT22;3665;51.034;13.642;2023-02-01T20:08:58;2.00;1.00
7248;DHT22;3665;51.034;13.642;2023-02-01T20:15:16;2.10;1.00
7248;DHT22;3665;51.034;13.642;2023-02-01T20:20:04;2.20;99.90
7248;DHT22;3665;51.034;13.642;2023-02-01T20:24:52;2.10;99.90
7248;DHT22;3665;51.034;13.642;2023-02-01T20:30:02;2.20;18.40
7248;DHT22;3665;51.034;13.642;2023-02-01T20:46:31;2.10;99.90
7248;DHT22;3665;51.034;13.642;2023-02-01T20:58:02;2.10;99.90
7248;DHT22;3665;51.034;13.642;2023-02-01T21:08:34;2.10;99.90
7248;DHT22;3665;51.034;13.642;2023-02-01T21:13:22;2.10;99.90
7248;DHT22;3665;51.034;13.642;2023-02-01T21:18:12;2.10;99.90
7248;DHT22;3665;51.034;13.642;2023-02-01T21:24:06;2.10;99.90
7248;DHT22;3665;51.034;13.642;2023-02-01T21:34:11;2.00;99.90
7248;DHT22;3665;51.034;13.642;2023-02-01T21:39:31;2.10;99.90
7248;DHT22;3665;51.034;13.642;2023-02-01T21:50:13;2.10;99.90
7248;DHT22;3665;51.034;13.642;2023-02-01T21:54:58;2.00;99.90
7248;DHT22;3665;51.034;13.642;2023-02-01T21:59:45;2.00;99.90
7248;DHT22;3665;51.034;13.642;2023-02-01T22:04:52;2.00;1.00
7248;DHT22;3665;51.034;13.642;2023-02-01T22:09:55;2.00;1.00
7248;DHT22;3665;51.034;13.642;2023-02-01T22:14:58;2.00;1.00
7248;DHT22;3665;51.034;13.642;2023-02-01T22:19:45;1.90;1.00
7248;DHT22;3665;51.034;13.642;2023-02-01T22:24:38;2.00;1.00
7248;DHT22;3665;51.034;13.642;2023-02-01T22:29:41;2.00;1.00
7248;DHT22;3665;51.034;13.642;2023-02-01T22:34:28;2.10;1.00
7248;DHT22;3665;51.034;13.642;2023-02-01T22:39:13;2.10;1.00
7248;DHT22;3665;51.034;13.642;2023-02-01T22:44:23;2.20;1.00
7248;DHT22;3665;51.034;13.642;2023-02-01T22:49:42;2.20;99.90
7248;DHT22;3665;51.034;13.642;2023-02-01T22:54:30;2.40;99.90
7248;DHT22;3665;51.034;13.642;2023-02-01T23:05:07;2.20;99.90
7248;DHT22;3665;51.034;13.642;2023-02-01T23:10:25;2.10;99.90
7248;DHT22;3665;51.034;13.642;2023-02-01T23:28:58;2.00;99.90
7248;DHT22;3665;51.034;13.642;2023-02-01T23:48:40;2.10;99.90
